createdAt,value
2023-04-07T04:02:46.922Z,90748.16
2023-04-07T04:05:31.715Z,90752.00
2023-04-07T04:08:16.755Z,90748.75
2023-04-07T04:11:01.530Z,90739.84
2023-04-07T04:13:46.386Z,90735.13
2023-04-07T04:16:31.350Z,90735.31
2023-04-07T04:19:16.321Z,90729.63
2023-04-07T04:22:01.114Z,90729.06
2023-04-07T04:24:46.002Z,90721.94
2023-04-07T04:27:30.828Z,90717.72
2023-04-07T04:30:15.641Z,90714.88
2023-04-07T04:33:00.660Z,90714.78
2023-04-07T04:35:45.387Z,90709.41
2023-04-07T04:38:30.376Z,90715.53
2023-04-07T04:41:15.212Z,90719.34
2023-04-07T04:44:00.042Z,90712.41
2023-04-07T04:46:44.805Z,90708.47
2023-04-07T04:49:29.835Z,90711.81
2023-04-07T04:52:14.667Z,90702.81
2023-04-07T04:54:59.546Z,90700.69
2023-04-07T04:57:44.613Z,90697.66
2023-04-07T05:00:29.634Z,90698.38
2023-04-07T05:03:14.863Z,90690.38
2023-04-07T05:05:59.968Z,90683.91
2023-04-07T05:08:44.973Z,90684.34
2023-04-07T05:11:30.026Z,90682.91
2023-04-07T05:14:14.871Z,90678.25
2023-04-07T05:16:59.896Z,90681.56
2023-04-07T05:19:44.710Z,90683.91
2023-04-07T05:22:29.589Z,90681.03
2023-04-07T05:25:14.396Z,90676.34
2023-04-07T05:27:59.317Z,90667.75
2023-04-07T05:30:44.127Z,90661.84
2023-04-07T05:33:29.060Z,90654.09
2023-04-07T05:36:13.990Z,90653.88
2023-04-07T05:38:58.813Z,90648.28
2023-04-07T05:41:43.681Z,90659.06
2023-04-07T05:44:28.539Z,90654.66
2023-04-07T05:47:13.292Z,90651.84
2023-04-07T05:49:58.081Z,90646.81
2023-04-07T05:52:42.995Z,90651.16
2023-04-07T05:55:27.845Z,90662.47
2023-04-07T05:58:12.732Z,90670.03
2023-04-07T06:00:57.564Z,90661.06
2023-04-07T06:03:42.661Z,90666.97
2023-04-07T06:06:27.486Z,90667.56
2023-04-07T06:09:12.406Z,90667.13
2023-04-07T06:11:57.331Z,90678.56
2023-04-07T06:14:42.204Z,90679.44
2023-04-07T06:17:27.103Z,90689.69
2023-04-07T06:20:11.829Z,90687.09
2023-04-07T06:22:56.724Z,90701.44
2023-04-07T06:25:41.439Z,90702.72
2023-04-07T06:28:26.234Z,90714.16
2023-04-07T06:31:11.189Z,90718.38
2023-04-07T06:33:56.137Z,90728.06
2023-04-07T06:36:41.087Z,90737.34
2023-04-07T06:39:26.047Z,90743.56
2023-04-07T06:42:10.935Z,90760.81
2023-04-07T06:44:55.783Z,90764.13
2023-04-07T06:47:40.846Z,90766.88
2023-04-07T06:50:25.651Z,90782.06
2023-04-07T06:53:10.594Z,90776.91
2023-04-07T06:55:55.629Z,90783.75
2023-04-07T06:58:40.372Z,90794.69
2023-04-07T07:01:25.432Z,90792.78
2023-04-07T07:04:10.154Z,90812.28
2023-04-07T07:06:55.087Z,90824.16
2023-04-07T07:09:39.867Z,90831.72
2023-04-07T07:12:24.959Z,90826.84
2023-04-07T07:15:09.697Z,90842.00
2023-04-07T07:17:54.736Z,90851.66
2023-04-07T07:20:39.571Z,90852.25
2023-04-07T07:23:24.523Z,90850.94
2023-04-07T07:26:09.467Z,90860.66
2023-04-07T07:28:54.187Z,90855.09
2023-04-07T07:31:39.119Z,90856.28
2023-04-07T07:34:23.901Z,90852.81
2023-04-07T07:37:08.747Z,90859.47
2023-04-07T07:39:53.597Z,90850.47
2023-04-07T07:42:38.501Z,90861.34
2023-04-07T07:45:23.382Z,90861.31
2023-04-07T07:48:08.272Z,90865.22
2023-04-07T07:50:53.243Z,90852.28
2023-04-07T07:53:38.229Z,90845.78
2023-04-07T07:56:23.304Z,90836.47
2023-04-07T07:59:08.132Z,90831.78
2023-04-07T08:01:52.993Z,90834.69
2023-04-07T08:04:37.752Z,90833.59
2023-04-07T08:07:22.689Z,90837.88
2023-04-07T08:10:07.552Z,90838.41
2023-04-07T08:12:52.376Z,90843.91
2023-04-07T08:15:37.302Z,90848.06
2023-04-07T08:18:22.293Z,90857.84
2023-04-07T08:21:07.217Z,90876.72
2023-04-07T08:23:51.995Z,90881.63
2023-04-07T08:26:37.026Z,90882.53
2023-04-07T08:29:21.795Z,90892.09
2023-04-07T08:32:06.705Z,90896.34
2023-04-07T08:34:51.495Z,90893.31
2023-04-07T08:37:36.422Z,90885.16
2023-04-07T08:40:21.259Z,90887.38
2023-04-07T08:43:06.136Z,90891.13
2023-04-07T08:45:53.085Z,90882.84
2023-04-07T08:48:38.537Z,90876.34
2023-04-07T08:51:23.484Z,90871.50
2023-04-07T08:54:08.231Z,90864.97
2023-04-07T08:56:53.080Z,90873.09
2023-04-07T08:59:37.855Z,90877.28
2023-04-07T09:02:22.931Z,90875.06
2023-04-07T09:05:07.796Z,90874.47
2023-04-07T09:07:52.618Z,90863.47
2023-04-07T09:10:37.462Z,90872.94
2023-04-07T09:13:22.256Z,90866.09
2023-04-07T09:16:07.293Z,90869.16
2023-04-07T09:18:52.150Z,90867.47
2023-04-07T09:21:37.143Z,90863.22
2023-04-07T09:24:22.030Z,90866.69
2023-04-07T09:27:06.867Z,90869.31
2023-04-07T09:29:51.847Z,90864.81
2023-04-07T09:32:36.641Z,90863.25
2023-04-07T09:35:21.403Z,90861.97
2023-04-07T09:38:06.242Z,90859.78
2023-04-07T09:40:51.135Z,90870.56
2023-04-07T09:43:35.983Z,90868.66
2023-04-07T09:46:20.846Z,90863.97
2023-04-07T09:49:05.652Z,90855.09
2023-04-07T09:51:50.530Z,90857.78
2023-04-07T09:54:35.552Z,90859.59
2023-04-07T09:57:20.369Z,90846.19
2023-04-07T10:00:05.281Z,90852.38
2023-04-07T10:02:51.197Z,90843.53
2023-04-07T10:05:35.960Z,90842.91
2023-04-07T10:08:20.786Z,90844.59
2023-04-07T10:11:05.710Z,90837.03
2023-04-07T10:13:50.688Z,90843.25
2023-04-07T10:16:35.410Z,90839.28
2023-04-07T10:19:20.383Z,90842.03
2023-04-07T10:22:05.110Z,90828.09
2023-04-07T10:24:49.996Z,90837.66
2023-04-07T10:27:34.751Z,90841.91
2023-04-07T10:30:19.726Z,90836.56
2023-04-07T10:33:04.580Z,90833.63
2023-04-07T10:35:49.655Z,90833.78
2023-04-07T10:38:34.428Z,90826.81
2023-04-07T10:41:19.249Z,90830.16
2023-04-07T10:44:04.515Z,90831.81
2023-04-07T10:46:49.395Z,90834.88
2023-04-07T10:49:34.373Z,90828.13
2023-04-07T10:52:19.336Z,90833.53
2023-04-07T10:55:04.303Z,90834.53
2023-04-07T10:57:49.098Z,90840.47
2023-04-07T11:00:33.928Z,90835.00
2023-04-07T11:03:18.998Z,90830.25
2023-04-07T11:06:03.773Z,90826.91
2023-04-07T11:08:49.507Z,90836.44
2023-04-07T11:11:34.638Z,90834.38
2023-04-07T11:14:19.534Z,90835.13
2023-04-07T11:17:04.476Z,90835.84
2023-04-07T11:19:49.326Z,90834.31
2023-04-07T11:22:34.198Z,90826.06
2023-04-07T11:25:19.099Z,90836.06
2023-04-07T11:28:04.074Z,90847.59
2023-04-07T11:30:48.948Z,90834.97
2023-04-07T11:33:34.002Z,90842.78
2023-04-07T11:36:18.786Z,90839.03
2023-04-07T11:39:03.799Z,90838.59
2023-04-07T11:41:48.542Z,90839.00
2023-04-07T11:44:33.432Z,90831.91
2023-04-07T11:47:18.210Z,90827.44
2023-04-07T11:50:03.088Z,90837.13
2023-04-07T11:52:48.024Z,90834.97
2023-04-07T11:55:32.877Z,90838.25
2023-04-07T11:58:17.835Z,90837.28
2023-04-07T12:01:02.726Z,90834.31
2023-04-07T12:03:47.940Z,90846.50
2023-04-07T12:06:33.001Z,90846.06
2023-04-07T12:09:18.024Z,90843.47
2023-04-07T12:12:02.892Z,90839.25
2023-04-07T12:14:47.772Z,90845.66
2023-04-07T12:17:32.692Z,90841.00
2023-04-07T12:20:17.530Z,90848.03
2023-04-07T12:23:02.488Z,90843.28
2023-04-07T12:25:47.293Z,90840.25
2023-04-07T12:28:32.153Z,90836.97
2023-04-07T12:31:16.945Z,90834.31
2023-04-07T12:34:01.702Z,90831.97
2023-04-07T12:36:46.585Z,90831.03
2023-04-07T12:39:31.610Z,90821.50
2023-04-07T12:42:16.502Z,90823.56
2023-04-07T12:45:01.441Z,90827.75
2023-04-07T12:47:46.370Z,90830.50
2023-04-07T12:50:31.386Z,90843.72
2023-04-07T12:53:16.403Z,90843.06
2023-04-07T12:56:01.231Z,90834.16
2023-04-07T12:58:46.109Z,90831.41
2023-04-07T13:01:31.090Z,90821.09
2023-04-07T13:04:16.030Z,90830.88
2023-04-07T13:07:00.833Z,90822.19
2023-04-07T13:09:45.690Z,90826.53
2023-04-07T13:12:30.568Z,90815.22
2023-04-07T13:15:15.395Z,90815.53
2023-04-07T13:18:00.260Z,90820.94
2023-04-07T13:20:54.398Z,90823.84
2023-04-07T13:23:49.031Z,90816.44
2023-04-07T13:26:33.950Z,90813.56
2023-04-07T13:29:18.841Z,90814.53
2023-04-07T13:32:03.630Z,90811.06
2023-04-07T13:34:48.387Z,90798.88
2023-04-07T13:37:33.316Z,90798.03
2023-04-07T13:40:18.176Z,90790.47
2023-04-07T13:43:03.136Z,90794.91
2023-04-07T13:45:47.873Z,90796.38
2023-04-07T13:48:32.748Z,90784.13
2023-04-07T13:51:17.744Z,90785.56
2023-04-07T13:54:02.705Z,90793.09
2023-04-07T13:56:47.677Z,90785.41
2023-04-07T13:59:32.420Z,90789.44
2023-04-07T14:02:17.592Z,90791.69
2023-04-07T14:05:02.099Z,90794.09
2023-04-07T14:07:47.197Z,90790.13
2023-04-07T14:10:32.045Z,90791.00
2023-04-07T14:13:16.868Z,90791.75
2023-04-07T14:16:01.890Z,90790.91
2023-04-07T14:18:46.692Z,90791.75
2023-04-07T14:21:31.563Z,90795.75
2023-04-07T14:24:16.432Z,90789.41
2023-04-07T14:27:01.379Z,90796.41
2023-04-07T14:29:46.265Z,90790.06
2023-04-07T14:32:31.140Z,90792.13
2023-04-07T14:35:15.877Z,90789.16
2023-04-07T14:38:00.732Z,90793.09
2023-04-07T14:40:45.602Z,90788.41
2023-04-07T14:43:30.491Z,90787.66
2023-04-07T14:46:15.386Z,90784.97
2023-04-07T14:49:00.119Z,90783.09
2023-04-07T14:51:45.009Z,90789.91
2023-04-07T14:54:29.863Z,90780.34
2023-04-07T14:57:14.796Z,90785.28
2023-04-07T14:59:59.610Z,90785.91
2023-04-07T15:02:44.636Z,90784.84
2023-04-07T15:05:29.358Z,90784.97
2023-04-07T15:08:14.217Z,90791.03
2023-04-07T15:10:59.081Z,90785.91
2023-04-07T15:13:43.907Z,90783.53
2023-04-07T15:16:28.893Z,90781.00
2023-04-07T15:19:13.595Z,90778.50
2023-04-07T15:21:58.475Z,90776.72
2023-04-07T15:24:43.272Z,90782.16
2023-04-07T15:27:28.061Z,90777.13
2023-04-07T15:30:12.865Z,90774.31
2023-04-07T15:32:57.879Z,90775.06
2023-04-07T15:35:42.775Z,90785.28
2023-04-07T15:38:27.649Z,90780.13
2023-04-07T15:41:12.487Z,90791.53
2023-04-07T15:43:57.153Z,90787.25
2023-04-07T15:46:42.119Z,90783.09
2023-04-07T15:49:26.888Z,90787.84
2023-04-07T15:52:11.854Z,90778.06
2023-04-07T15:54:56.592Z,90785.59
2023-04-07T15:57:41.632Z,90782.00
2023-04-07T16:00:26.616Z,90785.75
2023-04-07T16:03:11.606Z,90793.38
2023-04-07T16:05:56.486Z,90779.06
2023-04-07T16:08:41.427Z,90789.22
2023-04-07T16:11:26.571Z,90796.38
2023-04-07T16:14:11.337Z,90795.00
2023-04-07T16:16:56.354Z,90788.63
2023-04-07T16:19:41.243Z,90799.56
2023-04-07T16:22:26.150Z,90789.97
2023-04-07T16:25:11.180Z,90792.38
2023-04-07T16:27:56.051Z,90793.63
2023-04-07T16:30:40.841Z,90801.94
2023-04-07T16:33:26.143Z,90791.03
2023-04-07T16:36:11.078Z,90801.94
2023-04-07T16:38:55.856Z,90798.66
2023-04-07T16:41:40.863Z,90794.38
2023-04-07T16:44:25.666Z,90793.94
2023-04-07T16:47:10.602Z,90800.16
2023-04-07T16:49:55.451Z,90805.41
2023-04-07T16:52:40.278Z,90796.94
2023-04-07T16:55:25.228Z,90805.38
2023-04-07T16:58:10.239Z,90808.06
2023-04-07T17:00:55.133Z,90808.16
2023-04-07T17:03:39.960Z,90807.84
2023-04-07T17:06:24.758Z,90816.47
2023-04-07T17:09:09.758Z,90820.19
2023-04-07T17:11:54.676Z,90821.22
2023-04-07T17:14:39.657Z,90818.28
2023-04-07T17:17:24.349Z,90821.38
2023-04-07T17:20:09.418Z,90831.44
2023-04-07T17:22:54.110Z,90833.66
2023-04-07T17:25:39.225Z,90835.56
2023-04-07T17:28:24.044Z,90835.94
2023-04-07T17:31:08.960Z,90833.84
2023-04-07T17:33:53.961Z,90835.63
2023-04-07T17:36:38.905Z,90840.38
2023-04-07T17:39:23.814Z,90849.44
2023-04-07T17:42:08.531Z,90842.06
2023-04-07T17:44:53.415Z,90845.97
2023-04-07T17:47:38.172Z,90850.31
2023-04-07T17:50:23.154Z,90862.59
2023-04-07T17:53:07.962Z,90858.25
2023-04-07T17:55:52.876Z,90861.66
2023-04-07T17:58:37.747Z,90867.72
2023-04-07T18:01:22.780Z,90873.31
2023-04-07T18:04:07.764Z,90870.03
2023-04-07T18:06:52.470Z,90877.72
2023-04-07T18:09:37.586Z,90884.94
2023-04-07T18:12:22.403Z,90877.06
2023-04-07T18:15:07.255Z,90888.19
2023-04-07T18:17:52.110Z,90887.19
2023-04-07T18:20:36.888Z,90892.19
2023-04-07T18:23:21.743Z,90895.97
2023-04-07T18:26:06.667Z,90896.81
2023-04-07T18:28:51.399Z,90892.63
2023-04-07T18:31:36.393Z,90906.38
2023-04-07T18:34:21.172Z,90911.75
2023-04-07T18:37:05.938Z,90910.88
2023-04-07T18:39:50.923Z,90913.06
2023-04-07T18:42:35.737Z,90915.78
2023-04-07T18:45:20.678Z,90918.97
2023-04-07T18:48:05.630Z,90921.47
2023-04-07T18:50:50.542Z,90923.38
2023-04-07T18:53:35.489Z,90925.81
2023-04-07T18:56:20.306Z,90936.72
2023-04-07T18:59:05.103Z,90930.22
2023-04-07T19:01:49.975Z,90928.88
2023-04-07T19:04:34.811Z,90933.69
2023-04-07T19:07:19.707Z,90938.91
2023-04-07T19:10:04.482Z,90932.53
2023-04-07T19:12:49.439Z,90940.38
2023-04-07T19:15:34.255Z,90950.09
2023-04-07T19:18:18.990Z,90940.22
2023-04-07T19:21:03.878Z,90943.56
2023-04-07T19:23:49.180Z,90949.22
2023-04-07T19:26:34.100Z,90953.72
2023-04-07T19:29:19.030Z,90950.81
2023-04-07T19:32:03.928Z,90954.53
2023-04-07T19:34:48.758Z,90952.22
2023-04-07T19:37:33.671Z,90954.22
2023-04-07T19:40:18.707Z,90970.25
2023-04-07T19:43:03.522Z,90962.00
2023-04-07T19:45:48.512Z,90967.59
2023-04-07T19:48:33.581Z,90969.63
2023-04-07T19:51:18.468Z,90976.72
2023-04-07T19:54:03.587Z,90977.53
2023-04-07T19:56:48.460Z,90984.13
2023-04-07T19:59:33.373Z,90975.09
2023-04-07T20:02:18.346Z,90986.72
2023-04-07T20:05:03.085Z,90988.66
2023-04-07T20:07:47.903Z,90984.78
2023-04-07T20:10:32.731Z,90980.50
2023-04-07T20:13:17.794Z,90981.94
2023-04-07T20:16:02.674Z,90997.91
2023-04-07T20:18:47.809Z,90992.84
2023-04-07T20:21:32.874Z,91004.41
2023-04-07T20:24:17.852Z,90997.72
2023-04-07T20:27:02.675Z,91001.53
2023-04-07T20:29:47.538Z,91000.72
2023-04-07T20:32:32.351Z,91005.47
2023-04-07T20:35:17.219Z,91002.47
2023-04-07T20:38:01.984Z,91006.69
2023-04-07T20:40:46.837Z,91000.25
2023-04-07T20:43:31.758Z,91001.91
2023-04-07T20:46:16.603Z,91009.94
2023-04-07T20:49:01.339Z,91006.84
2023-04-07T20:51:46.090Z,91008.28
2023-04-07T20:54:31.189Z,91006.31
2023-04-07T20:57:15.842Z,91007.13
2023-04-07T21:00:00.626Z,91008.59
